Time;durP1;ratioP1;P1;durP2;ratioP2;P2;SDS_P1;SDS_P2;PMS_P1;PMS_P2;Temp;Humidity;BMP_temperature;BMP_pressure;BME280_temperature;BME280_humidity;BME280_pressure;Samples;Min_cycle;Max_cycle;Signal;HPM_P1;HPM_P2
2021/01/11 00:00:57;;;;;;;;;;;1.80;99.90;;;;;;5051633;28;20374;-82
2021/01/11 00:03:22;;;;;;;;;;;1.70;99.90;;;;;;5038604;28;19996;-82
2021/01/11 00:05:48;;;;;;;;;;;1.70;99.90;;;;;;5047647;28;20003;-82
2021/01/11 00:08:14;;;;;;;;;;;1.70;99.90;;;;;;5038176;28;19914;-82
2021/01/11 00:10:39;;;;;;;;;;;1.60;99.90;;;;;;5056176;28;19916;-82
2021/01/11 00:13:04;;;;;;;;;;;1.50;99.90;;;;;;5050767;28;19913;-82
2021/01/11 00:15:30;;;;;;;;;;;1.50;99.90;;;;;;5042714;28;20503;-82
2021/01/11 00:17:55;;;;;;;;;;;1.40;99.90;;;;;;5041804;28;19960;-81
2021/01/11 00:20:21;;;;;;;;;;;1.30;99.90;;;;;;5048393;28;20300;-82
2021/01/11 00:22:46;;;;;;;;;;;1.30;99.90;;;;;;5037818;28;19996;-83
2021/01/11 00:25:12;;;;;;;;;;;1.20;99.90;;;;;;5053414;28;19948;-82
2021/01/11 00:27:38;;;;;;;;;;;1.20;99.90;;;;;;5051603;28;19913;-82
2021/01/11 00:30:07;;;;;;;;;;;1.10;99.90;;;;;;5037760;28;19925;-82
2021/01/11 00:32:34;;;;;;;;;;;1.10;99.90;;;;;;5039285;28;19909;-82
2021/01/11 00:34:59;;;;;;;;;;;1.10;99.90;;;;;;5046324;28;19917;-82
2021/01/11 00:37:25;;;;;;;;;;;1.10;99.90;;;;;;5041688;28;19917;-82
2021/01/11 00:39:50;;;;;;;;;;;1.10;99.90;;;;;;5041800;28;19913;-82
2021/01/11 00:42:16;;;;;;;;;;;1.00;99.90;;;;;;5045823;28;19955;-81
2021/01/11 00:44:41;;;;;;;;;;;1.00;99.90;;;;;;5056953;28;20312;-82
2021/01/11 00:47:07;;;;;;;;;;;1.00;99.90;;;;;;5047535;28;19913;-81
2021/01/11 00:49:32;;;;;;;;;;;1.00;99.90;;;;;;5053314;28;20381;-82
2021/01/11 00:51:58;;;;;;;;;;;1.00;99.90;;;;;;5046538;28;20332;-82
2021/01/11 00:54:23;;;;;;;;;;;1.00;99.90;;;;;;5042116;28;20339;-82
2021/01/11 00:56:49;;;;;;;;;;;1.10;99.90;;;;;;5039213;28;20380;-82
2021/01/11 00:59:14;;;;;;;;;;;1.10;99.90;;;;;;5050271;28;19943;-82
2021/01/11 01:01:47;;;;;;;;;;;1.10;99.90;;;;;;5046634;28;19913;-82
2021/01/11 01:04:12;;;;;;;;;;;1.20;99.90;;;;;;5053225;28;20003;-82
2021/01/11 01:06:38;;;;;;;;;;;1.30;99.90;;;;;;5045386;28;19960;-82
2021/01/11 01:09:03;;;;;;;;;;;1.30;99.90;;;;;;5050671;28;19917;-81
2021/01/11 01:11:29;;;;;;;;;;;1.40;99.90;;;;;;5047135;28;19912;-82
2021/01/11 01:13:55;;;;;;;;;;;1.40;99.90;;;;;;5058926;28;20364;-82
2021/01/11 01:16:26;;;;;;;;;;;1.40;99.90;;;;;;5053236;28;19928;-82
2021/01/11 01:18:52;;;;;;;;;;;1.50;99.90;;;;;;5054848;28;19917;-81
2021/01/11 01:21:18;;;;;;;;;;;1.50;99.90;;;;;;5058419;28;19996;-82
2021/01/11 01:23:43;;;;;;;;;;;1.50;99.90;;;;;;5055454;28;19935;-83
2021/01/11 01:26:08;;;;;;;;;;;1.50;99.90;;;;;;5055625;28;19909;-82
2021/01/11 01:28:34;;;;;;;;;;;1.60;99.90;;;;;;5057177;28;19912;-83
2021/01/11 01:30:59;;;;;;;;;;;1.60;99.90;;;;;;5050417;28;19917;-82
2021/01/11 01:33:25;;;;;;;;;;;1.60;99.90;;;;;;5052652;28;19914;-82
2021/01/11 01:35:50;;;;;;;;;;;1.60;99.90;;;;;;5054634;28;19917;-82
2021/01/11 01:38:16;;;;;;;;;;;1.70;99.90;;;;;;5054484;28;19959;-83
2021/01/11 01:40:45;;;;;;;;;;;1.70;99.90;;;;;;5054123;28;19967;-83
2021/01/11 01:43:10;;;;;;;;;;;1.70;99.90;;;;;;5056824;28;19913;-82
2021/01/11 01:45:36;;;;;;;;;;;1.70;99.90;;;;;;5041377;28;19928;-82
2021/01/11 01:48:02;;;;;;;;;;;1.70;99.90;;;;;;5038906;28;20328;-82
2021/01/11 01:50:28;;;;;;;;;;;1.70;99.90;;;;;;5035836;28;19909;-82
2021/01/11 01:52:53;;;;;;;;;;;1.70;99.90;;;;;;5036913;28;19967;-82
2021/01/11 01:55:19;;;;;;;;;;;1.70;99.90;;;;;;5038294;28;20393;-84
2021/01/11 01:57:44;;;;;;;;;;;1.70;99.90;;;;;;5057176;28;20116;-83
2021/01/11 02:00:11;;;;;;;;;;;1.70;99.90;;;;;;5042842;28;19949;-82
2021/01/11 02:02:36;;;;;;;;;;;1.70;99.90;;;;;;5035706;28;19921;-82
2021/01/11 02:05:02;;;;;;;;;;;1.70;99.90;;;;;;5051073;28;20012;-82
2021/01/11 02:07:33;;;;;;;;;;;1.70;99.90;;;;;;5053702;28;19998;-82
2021/01/11 02:10:12;;;;;;;;;;;1.80;99.90;;;;;;5054314;28;19913;-82
2021/01/11 02:12:46;;;;;;;;;;;1.80;99.90;;;;;;5057302;28;19909;-82
2021/01/11 02:15:14;;;;;;;;;;;1.80;99.90;;;;;;5053718;28;20277;-82
2021/01/11 02:17:53;;;;;;;;;;;1.80;99.90;;;;;;5050675;28;20421;-82
2021/01/11 02:20:18;;;;;;;;;;;1.80;99.90;;;;;;5045203;28;19939;-81
2021/01/11 02:23:02;;;;;;;;;;;1.80;99.90;;;;;;5054730;28;19917;-82
2021/01/11 02:25:34;;;;;;;;;;;1.80;99.90;;;;;;5043620;28;19914;-82
2021/01/11 02:28:00;;;;;;;;;;;1.80;99.90;;;;;;5037137;28;19919;-82
2021/01/11 02:30:28;;;;;;;;;;;1.80;99.90;;;;;;5045895;28;19917;-82
2021/01/11 02:32:56;;;;;;;;;;;1.80;99.90;;;;;;5046293;28;20403;-83
2021/01/11 02:35:22;;;;;;;;;;;1.80;99.90;;;;;;5053467;28;19923;-82
2021/01/11 02:37:48;;;;;;;;;;;1.90;99.90;;;;;;5037854;28;19919;-83
2021/01/11 02:40:13;;;;;;;;;;;1.90;99.90;;;;;;5040905;28;20163;-82
2021/01/11 02:42:39;;;;;;;;;;;1.90;99.90;;;;;;5038163;28;19944;-82
2021/01/11 02:45:05;;;;;;;;;;;1.90;99.90;;;;;;5064632;28;19909;-82
2021/01/11 02:47:37;;;;;;;;;;;1.80;99.90;;;;;;5054731;28;19913;-82
2021/01/11 02:50:03;;;;;;;;;;;1.80;99.90;;;;;;5045752;28;19920;-82
2021/01/11 02:52:28;;;;;;;;;;;1.80;99.90;;;;;;5037404;28;19909;-83
2021/01/11 02:54:58;;;;;;;;;;;1.80;99.90;;;;;;5043148;28;19948;-82
2021/01/11 02:57:31;;;;;;;;;;;1.80;99.90;;;;;;5044350;28;20303;-83
2021/01/11 03:00:06;;;;;;;;;;;1.80;99.90;;;;;;5052426;28;19909;-81
2021/01/11 03:02:36;;;;;;;;;;;1.80;99.90;;;;;;5055562;28;19925;-82
2021/01/11 03:05:02;;;;;;;;;;;1.70;99.90;;;;;;5056756;28;19913;-82
2021/01/11 03:07:27;;;;;;;;;;;1.80;99.90;;;;;;5052867;28;19920;-82
2021/01/11 03:09:53;;;;;;;;;;;1.80;99.90;;;;;;5035022;28;20277;-83
2021/01/11 03:12:18;;;;;;;;;;;1.80;99.90;;;;;;5038032;28;20012;-82
2021/01/11 03:14:44;;;;;;;;;;;1.80;99.90;;;;;;5035706;28;19936;-83
2021/01/11 03:17:09;;;;;;;;;;;1.80;99.90;;;;;;5035458;28;20013;-81
2021/01/11 03:19:35;;;;;;;;;;;1.70;99.90;;;;;;5044358;28;19931;-82
2021/01/11 03:22:01;;;;;;;;;;;1.70;99.90;;;;;;5051383;28;19913;-82
2021/01/11 03:24:26;;;;;;;;;;;1.70;99.90;;;;;;5034744;28;20003;-81
2021/01/11 03:26:52;;;;;;;;;;;1.60;99.90;;;;;;5044356;28;19917;-82
2021/01/11 03:29:18;;;;;;;;;;;1.60;99.90;;;;;;5040148;28;19917;-82
2021/01/11 03:31:45;;;;;;;;;;;1.60;99.90;;;;;;5036131;28;19948;-81
2021/01/11 03:34:10;;;;;;;;;;;1.60;99.90;;;;;;5051210;28;19936;-81
2021/01/11 03:36:37;;;;;;;;;;;1.60;99.90;;;;;;5046932;28;19928;-81
2021/01/11 03:39:03;;;;;;;;;;;1.60;99.90;;;;;;5034404;28;19917;-81
2021/01/11 03:41:29;;;;;;;;;;;1.60;99.90;;;;;;5037125;28;19913;-82
2021/01/11 03:43:54;;;;;;;;;;;1.60;99.90;;;;;;5036923;28;20455;-82
2021/01/11 03:46:20;;;;;;;;;;;1.60;99.90;;;;;;5035531;28;19920;-83
2021/01/11 03:48:45;;;;;;;;;;;1.60;99.90;;;;;;5050421;28;20351;-83
2021/01/11 03:51:11;;;;;;;;;;;1.60;99.90;;;;;;5044320;28;19913;-82
2021/01/11 03:53:37;;;;;;;;;;;1.60;99.90;;;;;;5038394;28;19909;-82
2021/01/11 03:56:08;;;;;;;;;;;1.70;99.90;;;;;;5054102;28;20399;-82
2021/01/11 03:58:35;;;;;;;;;;;1.70;99.90;;;;;;5042637;28;19913;-82
2021/01/11 04:01:00;;;;;;;;;;;1.70;99.90;;;;;;5038181;28;19913;-82
2021/01/11 04:03:26;;;;;;;;;;;1.70;99.90;;;;;;5034994;28;19913;-82
2021/01/11 04:05:52;;;;;;;;;;;1.70;99.90;;;;;;5036720;28;19960;-82
2021/01/11 04:08:17;;;;;;;;;;;1.70;99.90;;;;;;5035995;28;20696;-81
2021/01/11 04:10:43;;;;;;;;;;;1.70;99.90;;;;;;5047362;28;19913;-82
2021/01/11 04:13:08;;;;;;;;;;;1.70;99.90;;;;;;5042507;28;19940;-82
2021/01/11 04:15:34;;;;;;;;;;;1.70;99.90;;;;;;5036143;28;19925;-82
2021/01/11 04:17:59;;;;;;;;;;;1.70;99.90;;;;;;5039222;28;19917;-82
2021/01/11 04:20:25;;;;;;;;;;;1.70;99.90;;;;;;5062022;22;20063;-81
2021/01/11 04:22:51;;;;;;;;;;;1.80;99.90;;;;;;5055153;28;20399;-81
2021/01/11 04:25:16;;;;;;;;;;;1.80;99.90;;;;;;5055249;28;19912;-81
2021/01/11 04:27:42;;;;;;;;;;;1.80;99.90;;;;;;5037019;28;19912;-81
2021/01/11 04:30:08;;;;;;;;;;;1.80;99.90;;;;;;5046720;28;19949;-81
2021/01/11 04:32:34;;;;;;;;;;;1.80;99.90;;;;;;5038331;28;19921;-81
2021/01/11 04:35:03;;;;;;;;;;;1.80;99.90;;;;;;5033845;28;19944;-81
2021/01/11 04:37:29;;;;;;;;;;;1.80;99.90;;;;;;5037984;28;19913;-81
2021/01/11 04:39:55;;;;;;;;;;;1.80;99.90;;;;;;5037592;28;19914;-81
2021/01/11 04:42:26;;;;;;;;;;;1.80;99.90;;;;;;5039461;28;20407;-81
2021/01/11 04:44:53;;;;;;;;;;;1.80;99.90;;;;;;5031175;28;19936;-81
2021/01/11 04:47:19;;;;;;;;;;;1.80;99.90;;;;;;5021205;28;20020;-81
2021/01/11 04:49:44;;;;;;;;;;;1.80;99.90;;;;;;5037910;28;19945;-81
2021/01/11 04:52:10;;;;;;;;;;;1.80;99.90;;;;;;5037769;28;20004;-82
2021/01/11 04:54:36;;;;;;;;;;;1.90;99.90;;;;;;5038700;28;20423;-81
2021/01/11 04:57:02;;;;;;;;;;;1.90;99.90;;;;;;5020954;28;19949;-81
2021/01/11 04:59:32;;;;;;;;;;;1.90;99.90;;;;;;5030197;28;19914;-81
2021/01/11 05:01:59;;;;;;;;;;;1.90;99.90;;;;;;5010880;28;19913;-81
2021/01/11 05:04:25;;;;;;;;;;;1.90;99.90;;;;;;5037468;28;19945;-80
2021/01/11 05:06:51;;;;;;;;;;;1.90;99.90;;;;;;5029314;28;19968;-81
2021/01/11 05:09:17;;;;;;;;;;;1.90;99.90;;;;;;5030383;28;20569;-81
2021/01/11 05:11:43;;;;;;;;;;;1.90;99.90;;;;;;5038862;28;19913;-81
2021/01/11 05:14:14;;;;;;;;;;;1.90;99.90;;;;;;5042443;28;19913;-81
2021/01/11 05:16:40;;;;;;;;;;;1.90;99.90;;;;;;5042430;28;19917;-81
2021/01/11 05:19:21;;;;;;;;;;;1.90;99.90;;;;;;5020725;28;19921;-81
2021/01/11 05:21:47;;;;;;;;;;;2.00;99.90;;;;;;5020347;28;19913;-81
2021/01/11 05:24:29;;;;;;;;;;;2.00;99.90;;;;;;5010885;28;19913;-81
2021/01/11 05:26:58;;;;;;;;;;;2.00;99.90;;;;;;5036224;28;19917;-81
2021/01/11 05:29:23;;;;;;;;;;;1.90;99.90;;;;;;5025798;28;19918;-81
2021/01/11 05:31:53;;;;;;;;;;;2.00;99.90;;;;;;5035537;28;19916;-81
2021/01/11 05:34:18;;;;;;;;;;;2.00;99.90;;;;;;5034944;28;19936;-80
2021/01/11 05:36:45;;;;;;;;;;;2.00;99.90;;;;;;5033292;28;19913;-81
2021/01/11 05:39:10;;;;;;;;;;;2.00;99.90;;;;;;5035540;28;19923;-81
2021/01/11 05:41:40;;;;;;;;;;;2.00;99.90;;;;;;5016595;28;20691;-81
2021/01/11 05:44:15;;;;;;;;;;;2.00;99.90;;;;;;5033659;28;19913;-81
2021/01/11 05:46:41;;;;;;;;;;;2.00;99.90;;;;;;5034268;28;19921;-81
2021/01/11 05:49:08;;;;;;;;;;;2.00;99.90;;;;;;5016423;28;19913;-81
2021/01/11 05:51:34;;;;;;;;;;;2.00;99.90;;;;;;5026687;28;19913;-81
2021/01/11 05:53:59;;;;;;;;;;;2.00;99.90;;;;;;5011573;28;20060;-80
2021/01/11 05:56:25;;;;;;;;;;;2.00;99.90;;;;;;5031618;28;20393;-81
2021/01/11 05:59:03;;;;;;;;;;;2.00;99.90;;;;;;5033727;28;20397;-81
2021/01/11 06:01:32;;;;;;;;;;;2.00;99.90;;;;;;5016868;28;19920;-81
2021/01/11 06:03:58;;;;;;;;;;;1.90;99.90;;;;;;5016562;28;19914;-81
2021/01/11 06:06:24;;;;;;;;;;;1.90;99.90;;;;;;5034250;28;19932;-80
2021/01/11 06:08:50;;;;;;;;;;;2.00;99.90;;;;;;5035444;28;19935;-81
2021/01/11 06:11:20;;;;;;;;;;;2.00;99.90;;;;;;5016128;28;19917;-81
2021/01/11 06:13:48;;;;;;;;;;;2.00;99.90;;;;;;5016348;28;19941;-81
2021/01/11 06:16:16;;;;;;;;;;;1.90;99.90;;;;;;5019671;28;19919;-80
2021/01/11 06:18:41;;;;;;;;;;;2.00;99.90;;;;;;5018020;28;19921;-81
2021/01/11 06:21:09;;;;;;;;;;;1.90;99.90;;;;;;5035404;28;19917;-81
2021/01/11 06:23:34;;;;;;;;;;;1.90;99.90;;;;;;5034193;28;19949;-81
2021/01/11 06:26:00;;;;;;;;;;;1.90;99.90;;;;;;5017104;28;20304;-81
2021/01/11 06:28:32;;;;;;;;;;;1.90;99.90;;;;;;5034874;28;19913;-81
2021/01/11 06:31:11;;;;;;;;;;;1.80;99.90;;;;;;5033144;28;19921;-80
2021/01/11 06:33:38;;;;;;;;;;;1.80;99.90;;;;;;5027770;28;20512;-81
2021/01/11 06:36:16;;;;;;;;;;;1.80;99.90;;;;;;5033650;28;19989;-81
2021/01/11 06:38:42;;;;;;;;;;;1.80;99.90;;;;;;5011371;28;19920;-81
2021/01/11 06:41:08;;;;;;;;;;;1.80;99.90;;;;;;5016562;28;20297;-81
2021/01/11 06:43:49;;;;;;;;;;;1.80;99.90;;;;;;5033878;28;19913;-80
2021/01/11 06:46:29;;;;;;;;;;;1.70;99.90;;;;;;5029862;28;19943;-80
2021/01/11 06:48:56;;;;;;;;;;;1.70;99.90;;;;;;5031909;28;19913;-81
2021/01/11 06:51:28;;;;;;;;;;;1.80;99.90;;;;;;5033417;28;19913;-81
2021/01/11 06:54:05;;;;;;;;;;;1.80;99.90;;;;;;5032836;28;19913;-81
2021/01/11 06:56:32;;;;;;;;;;;1.80;99.90;;;;;;5028758;28;20297;-81
2021/01/11 06:59:04;;;;;;;;;;;1.80;99.90;;;;;;5033322;28;20389;-81
2021/01/11 07:01:31;;;;;;;;;;;1.80;99.90;;;;;;5034401;28;20365;-81
2021/01/11 07:03:56;;;;;;;;;;;1.80;99.90;;;;;;5014082;28;19913;-79
2021/01/11 07:06:31;;;;;;;;;;;1.80;99.90;;;;;;5034435;28;20348;-81
2021/01/11 07:09:22;;;;;;;;;;;1.80;99.90;;;;;;5016277;28;19913;-79
2021/01/11 07:11:48;;;;;;;;;;;1.80;99.90;;;;;;5027315;28;19913;-81
2021/01/11 07:14:15;;;;;;;;;;;1.80;99.90;;;;;;5031721;28;19951;-80
2021/01/11 07:16:49;;;;;;;;;;;1.80;99.90;;;;;;5034115;28;20407;-80
2021/01/11 07:19:19;;;;;;;;;;;1.90;99.90;;;;;;5012790;28;20003;-79
2021/01/11 07:21:45;;;;;;;;;;;2.00;99.90;;;;;;5031855;28;19913;-80
2021/01/11 07:24:11;;;;;;;;;;;2.00;99.90;;;;;;5015434;28;19909;-79
2021/01/11 07:26:36;;;;;;;;;;;2.00;99.90;;;;;;5008787;28;20463;-80
2021/01/11 07:29:03;;;;;;;;;;;2.00;99.90;;;;;;5025891;28;19913;-79
2021/01/11 07:31:32;;;;;;;;;;;2.00;99.90;;;;;;5036286;28;19909;-80
2021/01/11 07:34:02;;;;;;;;;;;2.10;99.90;;;;;;5035439;28;19919;-80
2021/01/11 07:36:31;;;;;;;;;;;2.10;99.90;;;;;;5037214;28;19917;-80
2021/01/11 07:39:26;;;;;;;;;;;2.10;99.90;;;;;;5026151;28;19940;-79
2021/01/11 07:41:54;;;;;;;;;;;2.00;99.90;;;;;;4984476;28;19913;-79
2021/01/11 07:44:21;;;;;;;;;;;2.00;99.90;;;;;;5030828;28;20031;-79
2021/01/11 07:46:51;;;;;;;;;;;2.00;99.90;;;;;;5007619;28;19913;-79
2021/01/11 07:49:16;;;;;;;;;;;2.00;99.90;;;;;;5012384;28;20004;-79
2021/01/11 07:51:43;;;;;;;;;;;2.00;99.90;;;;;;5027360;28;20492;-79
2021/01/11 07:54:09;;;;;;;;;;;2.00;99.90;;;;;;5032342;28;19920;-79
2021/01/11 07:56:35;;;;;;;;;;;2.00;99.90;;;;;;5033968;28;19913;-79
2021/01/11 07:59:04;;;;;;;;;;;2.00;99.90;;;;;;5034463;28;20266;-80
2021/01/11 08:01:29;;;;;;;;;;;2.00;99.90;;;;;;5016124;28;19917;-79
2021/01/11 08:03:55;;;;;;;;;;;2.00;99.90;;;;;;5033759;28;20004;-79
2021/01/11 08:06:21;;;;;;;;;;;1.90;99.90;;;;;;5036595;28;19917;-79
2021/01/11 08:08:49;;;;;;;;;;;2.00;99.90;;;;;;5027227;28;20343;-79
2021/01/11 08:11:16;;;;;;;;;;;2.00;99.90;;;;;;5034967;28;19913;-80
2021/01/11 08:13:42;;;;;;;;;;;1.90;99.90;;;;;;5035739;28;19917;-80
2021/01/11 08:16:09;;;;;;;;;;;1.90;99.90;;;;;;5039641;28;20452;-80
2021/01/11 08:18:35;;;;;;;;;;;1.90;99.90;;;;;;5029386;28;19913;-80
2021/01/11 08:21:04;;;;;;;;;;;1.90;99.90;;;;;;5011977;28;19928;-80
2021/01/11 08:23:30;;;;;;;;;;;1.90;99.90;;;;;;5020551;28;19917;-80
2021/01/11 08:25:55;;;;;;;;;;;1.90;99.90;;;;;;5016882;28;19940;-79
2021/01/11 08:28:20;;;;;;;;;;;1.90;99.90;;;;;;5020052;28;19920;-80
2021/01/11 08:30:46;;;;;;;;;;;2.00;99.90;;;;;;5037981;28;19917;-80
2021/01/11 08:33:12;;;;;;;;;;;2.00;99.90;;;;;;5028814;28;19917;-80
2021/01/11 08:35:37;;;;;;;;;;;2.00;99.90;;;;;;5028032;28;19928;-80
2021/01/11 08:38:05;;;;;;;;;;;2.10;99.90;;;;;;5025842;28;19913;-80
2021/01/11 08:40:34;;;;;;;;;;;2.10;99.90;;;;;;5030295;28;19918;-80
2021/01/11 08:43:09;;;;;;;;;;;2.20;99.90;;;;;;5026289;28;19920;-80
2021/01/11 08:45:36;;;;;;;;;;;2.20;99.90;;;;;;5036619;28;20372;-80
2021/01/11 08:48:06;;;;;;;;;;;2.20;99.90;;;;;;5038537;28;20281;-80
2021/01/11 08:50:34;;;;;;;;;;;2.20;99.90;;;;;;5038265;28;19913;-80
2021/01/11 08:53:20;;;;;;;;;;;2.30;99.90;;;;;;5023945;28;19957;-80
2021/01/11 08:55:55;;;;;;;;;;;2.20;99.90;;;;;;5034326;28;19917;-80
2021/01/11 08:58:21;;;;;;;;;;;2.30;99.90;;;;;;5027939;28;19913;-80
2021/01/11 09:00:46;;;;;;;;;;;2.30;99.90;;;;;;5015805;28;19920;-80
2021/01/11 09:03:12;;;;;;;;;;;2.40;99.90;;;;;;5031618;28;19951;-80
2021/01/11 09:05:37;;;;;;;;;;;2.50;99.90;;;;;;5024705;28;19931;-80
2021/01/11 09:08:18;;;;;;;;;;;2.50;99.90;;;;;;5032873;28;19913;-80
2021/01/11 09:10:45;;;;;;;;;;;2.50;99.90;;;;;;5033804;28;20381;-80
2021/01/11 09:13:17;;;;;;;;;;;2.50;99.90;;;;;;5017619;28;19909;-80
2021/01/11 09:15:43;;;;;;;;;;;2.50;99.90;;;;;;5018105;28;20401;-79
2021/01/11 09:18:09;;;;;;;;;;;2.50;99.90;;;;;;5026185;28;19917;-80
2021/01/11 09:20:39;;;;;;;;;;;2.50;99.90;;;;;;5030688;28;19918;-80
2021/01/11 09:23:05;;;;;;;;;;;2.50;99.90;;;;;;5031691;28;20267;-80
2021/01/11 09:25:32;;;;;;;;;;;2.50;99.90;;;;;;5034761;28;19921;-80
2021/01/11 09:27:57;;;;;;;;;;;2.50;99.90;;;;;;5035865;28;20004;-80
2021/01/11 09:30:23;;;;;;;;;;;2.50;99.90;;;;;;5037382;28;19952;-79
2021/01/11 09:32:48;;;;;;;;;;;2.50;99.90;;;;;;5031594;28;19913;-80
2021/01/11 09:35:15;;;;;;;;;;;2.60;99.90;;;;;;5035827;28;19913;-79
2021/01/11 09:37:41;;;;;;;;;;;2.60;99.90;;;;;;5022028;28;19968;-79
2021/01/11 09:40:06;;;;;;;;;;;2.70;99.90;;;;;;5043834;28;19924;-79
2021/01/11 09:42:32;;;;;;;;;;;2.80;99.90;;;;;;5021176;28;19913;-81
2021/01/11 09:44:58;;;;;;;;;;;2.80;99.90;;;;;;5026147;28;19924;-80
2021/01/11 09:47:23;;;;;;;;;;;2.90;99.90;;;;;;5007386;28;19960;-80
2021/01/11 09:49:49;;;;;;;;;;;3.00;99.90;;;;;;5002123;28;19921;-80
2021/01/11 09:52:15;;;;;;;;;;;3.00;99.90;;;;;;5019179;28;19935;-80
2021/01/11 09:54:40;;;;;;;;;;;3.10;99.90;;;;;;5016612;28;20016;-79
2021/01/11 09:57:10;;;;;;;;;;;3.10;99.90;;;;;;5031372;28;19920;-80
2021/01/11 09:59:35;;;;;;;;;;;3.10;99.90;;;;;;5028040;28;19913;-80
2021/01/11 10:02:01;;;;;;;;;;;3.10;99.90;;;;;;5008528;28;20012;-82
2021/01/11 10:04:26;;;;;;;;;;;3.10;99.90;;;;;;5034506;28;20610;-80
2021/01/11 10:06:53;;;;;;;;;;;3.10;99.90;;;;;;5034525;28;20403;-80
2021/01/11 10:09:22;;;;;;;;;;;3.10;99.90;;;;;;5029658;28;20443;-80
2021/01/11 10:11:50;;;;;;;;;;;3.10;99.90;;;;;;5012518;28;20389;-80
2021/01/11 10:14:15;;;;;;;;;;;3.20;99.90;;;;;;5013983;28;20377;-80
2021/01/11 10:16:42;;;;;;;;;;;3.20;99.90;;;;;;5030849;28;19924;-80
2021/01/11 10:19:16;;;;;;;;;;;3.20;99.90;;;;;;5057383;22;19935;-84
2021/01/11 10:21:41;;;;;;;;;;;3.20;99.90;;;;;;5036811;28;19914;-85
2021/01/11 10:24:07;;;;;;;;;;;3.20;99.90;;;;;;5041419;28;19924;-87
2021/01/11 10:26:33;;;;;;;;;;;3.20;99.90;;;;;;5074329;28;19904;-86
2021/01/11 10:28:59;;;;;;;;;;;3.20;99.90;;;;;;5044357;28;19917;-85
2021/01/11 10:31:24;;;;;;;;;;;3.30;99.90;;;;;;5041244;28;20442;-85
2021/01/11 10:33:50;;;;;;;;;;;3.30;99.90;;;;;;5039172;28;19920;-85
2021/01/11 10:36:15;;;;;;;;;;;3.30;99.90;;;;;;5015629;28;20001;-85
2021/01/11 10:38:41;;;;;;;;;;;3.30;99.90;;;;;;5008545;28;19920;-84
2021/01/11 10:41:07;;;;;;;;;;;3.30;99.90;;;;;;5018551;28;20333;-84
2021/01/11 10:43:33;;;;;;;;;;;3.30;99.90;;;;;;5018676;28;19928;-83
2021/01/11 10:45:59;;;;;;;;;;;3.30;99.90;;;;;;5018321;28;19984;-84
2021/01/11 10:48:25;;;;;;;;;;;3.40;99.90;;;;;;5021359;28;19967;-84
2021/01/11 10:50:51;;;;;;;;;;;3.50;99.90;;;;;;5019236;28;19960;-84
2021/01/11 10:53:16;;;;;;;;;;;3.50;99.90;;;;;;5034157;28;19917;-84
2021/01/11 10:55:42;;;;;;;;;;;3.60;99.90;;;;;;5007590;28;19916;-85
2021/01/11 10:58:07;;;;;;;;;;;3.60;99.90;;;;;;5023525;28;19913;-85
2021/01/11 11:00:33;;;;;;;;;;;3.70;99.90;;;;;;5019034;28;19909;-85
2021/01/11 11:02:58;;;;;;;;;;;3.70;99.90;;;;;;5016427;28;19920;-84
2021/01/11 11:05:24;;;;;;;;;;;3.70;99.90;;;;;;5011244;28;21510;-85
2021/01/11 11:07:50;;;;;;;;;;;3.70;99.90;;;;;;5005420;28;19963;-85
2021/01/11 11:10:15;;;;;;;;;;;3.80;99.90;;;;;;5028043;28;19995;-85
2021/01/11 11:12:42;;;;;;;;;;;3.80;99.90;;;;;;5018816;28;19944;-84
2021/01/11 11:15:08;;;;;;;;;;;3.90;99.90;;;;;;5016211;28;19959;-85
2021/01/11 11:17:33;;;;;;;;;;;3.90;99.90;;;;;;5034781;28;19909;-85
2021/01/11 11:19:59;;;;;;;;;;;3.90;99.90;;;;;;5033853;28;19924;-85
2021/01/11 11:22:25;;;;;;;;;;;3.90;99.90;;;;;;5036117;28;19909;-85
2021/01/11 11:24:51;;;;;;;;;;;4.00;99.90;;;;;;5008357;28;19917;-85
2021/01/11 11:27:16;;;;;;;;;;;4.00;99.90;;;;;;5005636;28;20051;-86
2021/01/11 11:29:42;;;;;;;;;;;4.10;99.90;;;;;;5035334;28;19917;-83
2021/01/11 11:32:07;;;;;;;;;;;4.20;99.90;;;;;;5035382;28;20288;-85
2021/01/11 11:34:33;;;;;;;;;;;4.20;99.90;;;;;;5034874;28;19975;-87
2021/01/11 11:36:58;;;;;;;;;;;4.30;99.90;;;;;;5032291;28;19913;-86
2021/01/11 11:39:24;;;;;;;;;;;4.30;99.90;;;;;;5014774;28;19985;-84
2021/01/11 11:41:54;;;;;;;;;;;4.30;99.90;;;;;;5017268;28;19917;-85
2021/01/11 11:44:20;;;;;;;;;;;4.30;99.90;;;;;;5004125;28;19913;-86
2021/01/11 11:46:45;;;;;;;;;;;4.30;99.90;;;;;;5028093;28;20070;-86
2021/01/11 11:49:11;;;;;;;;;;;4.30;99.90;;;;;;5032799;28;19917;-83
2021/01/11 11:51:41;;;;;;;;;;;4.30;99.90;;;;;;5032068;28;19917;-85
2021/01/11 11:54:06;;;;;;;;;;;4.30;99.90;;;;;;5019941;28;19913;-85
2021/01/11 11:56:32;;;;;;;;;;;4.40;99.90;;;;;;5022334;28;20379;-85
2021/01/11 11:58:57;;;;;;;;;;;4.50;99.90;;;;;;5021118;28;19913;-85
2021/01/11 12:01:22;;;;;;;;;;;4.60;99.90;;;;;;5034004;28;19913;-86
2021/01/11 12:03:48;;;;;;;;;;;4.70;99.90;;;;;;5030413;28;19909;-85
2021/01/11 12:06:13;;;;;;;;;;;4.70;99.90;;;;;;5035999;28;20425;-85
2021/01/11 12:08:39;;;;;;;;;;;4.80;99.90;;;;;;5021324;28;20305;-85
2021/01/11 12:11:04;;;;;;;;;;;4.80;99.90;;;;;;5020486;28;20369;-85
2021/01/11 12:13:30;;;;;;;;;;;4.80;99.90;;;;;;5015636;28;19914;-85
2021/01/11 12:15:55;;;;;;;;;;;4.80;99.90;;;;;;5017996;28;19917;-85
2021/01/11 12:18:21;;;;;;;;;;;4.80;99.90;;;;;;5036208;28;19940;-84
2021/01/11 12:20:47;;;;;;;;;;;4.80;99.90;;;;;;5021628;28;19928;-85
2021/01/11 12:23:14;;;;;;;;;;;4.80;99.90;;;;;;5010474;28;19913;-84
2021/01/11 12:25:40;;;;;;;;;;;4.80;99.90;;;;;;5027351;28;19917;-85
2021/01/11 12:28:06;;;;;;;;;;;4.80;99.90;;;;;;5011414;28;19967;-85
2021/01/11 12:30:32;;;;;;;;;;;4.90;99.90;;;;;;5015050;28;20051;-84
2021/01/11 12:32:57;;;;;;;;;;;4.90;99.90;;;;;;5030396;28;19959;-86
2021/01/11 12:35:22;;;;;;;;;;;4.90;99.90;;;;;;5028004;28;20381;-87
2021/01/11 12:37:48;;;;;;;;;;;4.90;99.90;;;;;;5013051;28;20841;-85
2021/01/11 12:40:14;;;;;;;;;;;4.90;99.90;;;;;;5022421;28;19935;-86
2021/01/11 12:42:39;;;;;;;;;;;4.90;99.90;;;;;;5013083;28;19913;-85
2021/01/11 12:45:05;;;;;;;;;;;4.90;99.90;;;;;;5009393;28;19921;-86
2021/01/11 12:47:34;;;;;;;;;;;4.90;99.90;;;;;;5025534;28;20282;-86
2021/01/11 12:50:02;;;;;;;;;;;4.90;99.90;;;;;;5012515;28;20369;-86
2021/01/11 12:52:28;;;;;;;;;;;4.80;99.90;;;;;;5010141;28;19913;-88
2021/01/11 12:54:53;;;;;;;;;;;4.80;99.90;;;;;;5008799;28;20301;-87
2021/01/11 12:57:19;;;;;;;;;;;4.90;99.90;;;;;;5021375;28;19929;-85
2021/01/11 12:59:46;;;;;;;;;;;4.90;99.90;;;;;;5014178;28;20004;-85
2021/01/11 13:02:11;;;;;;;;;;;4.90;99.90;;;;;;5022806;28;19914;-83
2021/01/11 13:04:37;;;;;;;;;;;4.90;99.90;;;;;;5005771;28;20290;-86
2021/01/11 13:07:02;;;;;;;;;;;4.90;99.90;;;;;;5006460;28;19936;-84
2021/01/11 13:09:27;;;;;;;;;;;4.90;99.90;;;;;;5003980;28;19920;-84
2021/01/11 13:11:53;;;;;;;;;;;5.00;99.90;;;;;;5033882;28;19909;-85
2021/01/11 13:14:21;;;;;;;;;;;5.00;99.90;;;;;;5032873;28;20363;-86
2021/01/11 13:16:53;;;;;;;;;;;5.10;99.90;;;;;;5033608;28;19958;-85
2021/01/11 13:19:19;;;;;;;;;;;5.10;99.90;;;;;;5031323;28;19918;-85
2021/01/11 13:21:44;;;;;;;;;;;5.10;99.90;;;;;;5037084;28;19913;-85
2021/01/11 13:24:10;;;;;;;;;;;5.10;99.90;;;;;;5034031;28;19980;-86
2021/01/11 13:26:37;;;;;;;;;;;5.00;99.90;;;;;;5015142;28;19917;-86
2021/01/11 13:29:04;;;;;;;;;;;5.00;99.90;;;;;;5010885;28;19909;-85
2021/01/11 13:31:30;;;;;;;;;;;5.00;99.90;;;;;;5036077;28;20296;-85
2021/01/11 13:33:56;;;;;;;;;;;5.00;99.90;;;;;;5018531;28;20003;-86
2021/01/11 13:36:26;;;;;;;;;;;5.00;99.90;;;;;;5022171;28;19935;-86
2021/01/11 13:38:52;;;;;;;;;;;5.00;99.90;;;;;;5034640;28;20313;-86
2021/01/11 13:41:17;;;;;;;;;;;4.90;99.90;;;;;;5007777;28;19924;-85
2021/01/11 13:43:43;;;;;;;;;;;4.90;99.90;;;;;;5032048;28;20008;-86
2021/01/11 13:46:08;;;;;;;;;;;4.90;99.90;;;;;;5035184;28;19917;-86
2021/01/11 13:48:34;;;;;;;;;;;4.90;99.90;;;;;;5035664;28;19913;-84
2021/01/11 13:50:59;;;;;;;;;;;5.00;99.90;;;;;;5037148;28;19910;-86
2021/01/11 13:53:25;;;;;;;;;;;5.20;99.90;;;;;;5020686;28;19968;-86
2021/01/11 13:55:50;;;;;;;;;;;5.30;99.90;;;;;;5011937;28;19910;-86
2021/01/11 13:58:17;;;;;;;;;;;5.30;99.90;;;;;;5022416;28;20016;-85
2021/01/11 14:00:43;;;;;;;;;;;5.30;99.90;;;;;;5009611;28;19999;-86
2021/01/11 14:03:08;;;;;;;;;;;5.30;99.90;;;;;;5036957;28;19909;-85
2021/01/11 14:05:34;;;;;;;;;;;5.30;99.90;;;;;;5016380;28;19940;-85
2021/01/11 14:07:59;;;;;;;;;;;5.30;99.90;;;;;;5018867;28;19916;-85
2021/01/11 14:10:25;;;;;;;;;;;5.30;99.90;;;;;;5018817;28;19920;-86
2021/01/11 14:12:50;;;;;;;;;;;5.30;99.90;;;;;;5018755;28;20274;-86
2021/01/11 14:15:16;;;;;;;;;;;5.30;99.90;;;;;;5032785;28;19960;-85
2021/01/11 14:17:41;;;;;;;;;;;5.30;99.90;;;;;;5028330;28;19924;-86
2021/01/11 14:20:08;;;;;;;;;;;5.30;99.90;;;;;;5006803;28;19921;-86
2021/01/11 14:22:34;;;;;;;;;;;5.20;99.90;;;;;;5006080;28;20385;-87
2021/01/11 14:24:59;;;;;;;;;;;5.20;99.90;;;;;;5009836;28;19924;-86
2021/01/11 14:27:25;;;;;;;;;;;5.10;99.90;;;;;;5027479;28;19913;-85
2021/01/11 14:29:50;;;;;;;;;;;5.10;99.90;;;;;;5019547;28;20266;-86